Time;durP1;ratioP1;P1;durP2;ratioP2;P2;SDS_P1;SDS_P2;PMS_P1;PMS_P2;Temp;Humidity;BMP_temperature;BMP_pressure;BME280_temperature;BME280_humidity;BME280_pressure;Samples;Min_cycle;Max_cycle;Signal;HPM_P1;HPM_P2
2023/11/01 00:01:23;;;;;;;;;8.50;8.50;;;;;10.09;100.00;99052.41;6283033;20;2732712;-44
2023/11/01 00:03:52;;;;;;;;;8.00;7.67;;;;;10.14;100.00;99046.75;6303307;20;1808684;-43
2023/11/01 00:06:20;;;;;;;;;8.50;8.50;;;;;10.25;100.00;99056.72;6313043;20;2748770;-46
2023/11/01 00:08:48;;;;;;;;;7.50;7.50;;;;;10.18;100.00;99047.38;6283438;20;2737747;-45
2023/11/01 00:11:16;;;;;;;;;10.00;8.00;;;;;10.15;100.00;99051.13;6279506;20;2751425;-46
2023/11/01 00:13:44;;;;;;;;;9.50;7.00;;;;;10.11;100.00;99055.84;6281685;20;2758650;-45
2023/11/01 00:16:11;;;;;;;;;10.00;8.50;;;;;10.35;100.00;99062.31;6284750;20;2763827;-46
2023/11/01 00:18:39;;;;;;;;;7.00;7.00;;;;;10.14;100.00;99070.88;6283368;20;2430494;-45
2023/11/01 00:21:11;;;;;;;;;7.71;6.86;;;;;10.29;100.00;99064.47;6323904;20;1808711;-47
2023/11/01 00:23:38;;;;;;;;;9.00;7.00;;;;;10.20;100.00;99058.88;6313094;20;2753409;-46
2023/11/01 00:26:07;;;;;;;;;7.50;6.00;;;;;10.18;100.00;99055.41;6282239;20;2735677;-47
2023/11/01 00:28:36;;;;;;;;;10.00;7.80;;;;;10.23;100.00;99064.84;6301070;20;2750356;-49
2023/11/01 00:31:04;;;;;;;;;9.00;7.50;;;;;10.23;100.00;99059.50;6312303;20;2751450;-49
2023/11/01 00:33:33;;;;;;;;;3.25;3.25;;;;;10.19;100.00;99063.38;6295833;20;1804525;-46
2023/11/01 00:36:01;;;;;;;;;6.00;6.00;;;;;10.36;100.00;99066.72;6314672;20;2738884;-45
2023/11/01 00:38:30;;;;;;;;;7.00;7.00;;;;;10.22;100.00;99057.78;6280010;20;2748246;-45
2023/11/01 00:41:05;;;;;;;;;8.14;8.00;;;;;10.13;100.00;99053.06;6323670;20;1802392;-45
2023/11/01 00:43:33;;;;;;;;;8.00;8.00;;;;;10.08;100.00;99058.75;6314259;20;2733616;-45
2023/11/01 00:46:01;;;;;;;;;8.00;8.00;;;;;9.93;100.00;99061.66;6283802;20;2740897;-47
2023/11/01 00:48:31;;;;;;;;;7.00;6.40;;;;;10.06;100.00;99073.25;6305604;20;2741976;-46
2023/11/01 00:50:58;;;;;;;;;10.00;8.00;;;;;10.12;100.00;99072.81;6309950;20;2755638;-45
2023/11/01 00:53:26;;;;;;;;;4.50;4.50;;;;;10.14;100.00;99065.53;6280610;20;2752618;-45
2023/11/01 00:55:54;;;;;;;;;9.00;8.00;;;;;10.03;100.00;99065.38;6279891;20;2735855;-45
2023/11/01 00:58:22;;;;;;;;;8.00;8.00;;;;;10.01;100.00;99070.03;6288654;20;2731625;-45
2023/11/01 01:00:52;;;;;;;;;9.00;9.00;;;;;10.05;100.00;99066.16;6308323;20;2741934;-45
2023/11/01 01:03:23;;;;;;;;;11.71;9.86;;;;;10.13;100.00;99076.34;6327480;20;1802388;-47
2023/11/01 01:05:55;;;;;;;;;9.57;8.00;;;;;9.80;100.00;99077.72;6357633;20;3482659;-45
2023/11/01 01:08:23;;;;;;;;;12.00;11.00;;;;;9.85;100.00;99078.25;6314480;20;2782562;-46
2023/11/01 01:10:52;;;;;;;;;9.00;7.00;;;;;9.64;100.00;99088.63;6308654;20;2731496;-45
2023/11/01 01:13:20;;;;;;;;;11.00;11.00;;;;;9.65;100.00;99084.97;6315552;20;2794087;-45
2023/11/01 01:15:48;;;;;;;;;8.00;8.00;;;;;9.55;100.00;99089.22;6287105;20;2732567;-45
2023/11/01 01:18:17;;;;;;;;;10.00;10.00;;;;;9.72;100.00;99098.81;6318925;20;2779466;-45
2023/11/01 01:20:47;;;;;;;;;11.00;10.33;;;;;9.65;100.00;99096.53;6281841;20;2781582;-45
2023/11/01 01:23:15;;;;;;;;;12.00;11.00;;;;;9.57;100.00;99098.88;6313074;20;2796213;-45
2023/11/01 01:25:45;;;;;;;;;9.00;8.80;;;;;9.70;100.00;99101.59;6310547;20;2752427;-45
2023/11/01 01:28:13;;;;;;;;;8.50;6.50;;;;;9.51;100.00;99101.13;6318946;20;2745040;-45
2023/11/01 01:30:40;;;;;;;;;9.00;8.50;;;;;9.58;100.00;99097.91;6282138;20;2734785;-47
2023/11/01 01:33:10;;;;;;;;;11.40;10.00;;;;;9.49;100.00;99100.34;6309723;20;2768411;-45
2023/11/01 01:35:38;;;;;;;;;9.50;7.00;;;;;9.76;100.00;99103.84;6282243;20;2744015;-48
2023/11/01 01:38:06;;;;;;;;;9.00;9.00;;;;;9.79;100.00;99108.16;6284359;20;2748261;-45
2023/11/01 01:40:35;;;;;;;;;7.80;6.00;;;;;9.76;100.00;99103.00;6310386;20;2743144;-45
2023/11/01 01:43:19;;;;;;;;;8.00;7.00;;;;;9.62;100.00;99104.78;6314765;20;2742379;-47
2023/11/01 01:45:59;;;;;;;;;6.25;5.00;;;;;9.29;100.00;99102.50;6298973;20;1811267;-45
2023/11/01 01:48:28;;;;;;;;;7.50;5.00;;;;;9.54;100.00;99107.13;6318325;20;2747120;-46
2023/11/01 01:50:56;;;;;;;;;5.50;5.50;;;;;9.45;100.00;99108.59;6286472;20;2738862;-45
2023/11/01 01:53:28;;;;;;;;;7.75;7.50;;;;;9.48;100.00;99109.34;6327590;20;2480513;-45
2023/11/01 01:55:56;;;;;;;;;9.50;7.00;;;;;9.29;100.00;99104.34;6314624;20;2758676;-45
2023/11/01 01:58:27;;;;;;;;;8.50;8.00;;;;;9.30;100.00;99106.94;6282208;20;2736772;-46
2023/11/01 02:00:59;;;;;;;;;8.00;6.00;;;;;9.45;100.00;99121.13;6283596;20;3438861;-45
2023/11/01 02:03:27;;;;;;;;;7.00;7.00;;;;;9.52;100.00;99118.91;6317365;20;2746095;-45
2023/11/01 02:05:56;;;;;;;;;8.00;6.25;;;;;9.47;100.00;99118.34;6300216;20;1808762;-45
2023/11/01 02:08:25;;;;;;;;;8.00;6.00;;;;;9.51;100.00;99130.59;6316718;20;2738930;-45
2023/11/01 02:10:53;;;;;;;;;7.00;5.00;;;;;9.71;100.00;99134.63;6283444;20;2735660;-47
2023/11/01 02:13:21;;;;;;;;;8.00;5.50;;;;;9.37;100.00;99137.72;6285496;20;2741065;-47
2023/11/01 02:15:49;;;;;;;;;5.00;5.00;;;;;9.45;100.00;99151.47;6283277;20;2748234;-45
2023/11/01 02:18:17;;;;;;;;;8.00;6.00;;;;;9.59;100.00;99149.72;6286290;20;2733604;-45
2023/11/01 02:20:49;;;;;;;;;5.50;5.50;;;;;9.70;100.00;99163.25;6284370;20;2737841;-45
2023/11/01 02:23:17;;;;;;;;;6.00;6.00;;;;;9.59;100.00;99163.09;6301243;20;1808764;-45
2023/11/01 02:25:45;;;;;;;;;6.00;5.00;;;;;9.73;100.00;99168.41;6311305;20;2748319;-47
2023/11/01 02:28:15;;;;;;;;;8.00;7.00;;;;;9.74;100.00;99169.25;6284952;20;2736709;-45
2023/11/01 02:30:43;;;;;;;;;6.00;3.00;;;;;9.79;100.00;99167.97;6312067;20;2746134;-47
2023/11/01 02:33:11;;;;;;;;;6.00;4.50;;;;;9.95;100.00;99178.53;6284936;20;2748184;-46
2023/11/01 02:35:39;;;;;;;;;6.50;5.50;;;;;9.74;100.00;99180.88;6282718;20;2739868;-45
2023/11/01 02:38:07;;;;;;;;;6.00;6.00;;;;;9.82;100.00;99178.53;6282901;20;2750309;-45
2023/11/01 02:40:35;;;;;;;;;6.00;4.00;;;;;9.94;100.00;99171.47;6283013;20;2751457;-45
2023/11/01 02:43:03;;;;;;;;;4.00;4.00;;;;;9.97;100.00;99181.13;6282737;20;2749351;-46
2023/11/01 02:45:31;;;;;;;;;5.50;5.00;;;;;9.87;100.00;99179.09;6285248;20;2748648;-48
2023/11/01 02:47:59;;;;;;;;;6.50;6.00;;;;;9.93;100.00;99179.63;6284043;20;2738937;-45
2023/11/01 02:50:27;;;;;;;;;6.00;5.00;;;;;9.94;100.00;99182.19;6286049;20;2748157;-46
2023/11/01 02:52:55;;;;;;;;;5.00;5.00;;;;;9.95;100.00;99188.41;6282448;20;2742106;-46
2023/11/01 02:55:23;;;;;;;;;4.00;4.00;;;;;9.80;100.00;99191.16;6285357;20;2745044;-46
2023/11/01 02:57:51;;;;;;;;;6.00;6.00;;;;;9.77;100.00;99186.03;6285741;20;2732606;-48
2023/11/01 03:00:19;;;;;;;;;6.00;5.00;;;;;9.69;100.00;99191.03;6315098;20;2750445;-45
2023/11/01 03:02:53;;;;;;;;;6.00;4.50;;;;;9.82;100.00;99194.63;6284191;20;2739828;-46
2023/11/01 03:05:24;;;;;;;;;6.00;4.00;;;;;9.70;100.00;99200.78;6284605;20;2750482;-45
2023/11/01 03:07:53;;;;;;;;;6.00;5.00;;;;;9.71;100.00;99197.13;6284038;20;2748186;-45
2023/11/01 03:10:22;;;;;;;;;5.50;5.50;;;;;9.73;100.00;99200.56;6284794;20;2748252;-44
2023/11/01 03:12:49;;;;;;;;;5.00;5.00;;;;;9.77;100.00;99202.09;6283257;20;2748244;-46
2023/11/01 03:15:17;;;;;;;;;5.00;5.00;;;;;9.85;100.00;99205.13;6284673;20;2745049;-50
2023/11/01 03:17:47;;;;;;;;;5.50;5.00;;;;;9.65;100.00;99198.38;6283712;20;2748251;-45
2023/11/01 03:20:15;;;;;;;;;4.00;4.00;;;;;9.69;100.00;99209.78;6283323;20;2739507;-46
2023/11/01 03:22:43;;;;;;;;;6.50;5.75;;;;;9.74;100.00;99201.41;6301549;20;1793123;-45
2023/11/01 03:25:15;;;;;;;;;6.00;6.00;;;;;9.60;100.00;99207.69;6354108;20;2477377;-45
2023/11/01 03:27:43;;;;;;;;;5.00;5.00;;;;;9.66;100.00;99212.66;6315046;20;2731554;-47
2023/11/01 03:30:11;;;;;;;;;6.00;5.00;;;;;9.74;100.00;99218.41;6311999;20;2742997;-45
2023/11/01 03:32:41;;;;;;;;;6.80;5.00;;;;;9.53;100.00;99219.75;6302209;20;2745167;-45
2023/11/01 03:35:09;;;;;;;;;7.00;7.00;;;;;9.53;100.00;99220.66;6314752;20;2730493;-45
2023/11/01 03:37:36;;;;;;;;;6.00;6.00;;;;;9.50;100.00;99222.66;6314589;20;2744153;-45
2023/11/01 03:40:06;;;;;;;;;7.00;6.00;;;;;9.41;100.00;99227.66;6282235;20;2752369;-48
2023/11/01 03:42:33;;;;;;;;;6.50;6.00;;;;;9.64;100.00;99228.00;6278041;20;2732611;-44
2023/11/01 03:45:01;;;;;;;;;11.00;8.50;;;;;9.77;100.00;99228.03;6279758;20;2764851;-45
2023/11/01 03:47:29;;;;;;;;;7.00;7.00;;;;;9.59;100.00;99235.47;6285281;20;2745143;-46
2023/11/01 03:49:57;;;;;;;;;6.00;6.00;;;;;9.37;100.00;99241.34;6285467;20;2731698;-46
2023/11/01 03:52:25;;;;;;;;;6.00;6.00;;;;;9.73;100.00;99243.47;6281906;20;2732641;-45
2023/11/01 03:54:53;;;;;;;;;6.50;6.50;;;;;9.64;100.00;99244.94;6313910;20;2740034;-45
2023/11/01 03:57:20;;;;;;;;;5.50;5.00;;;;;9.62;100.00;99244.16;6283847;20;2748194;-45
2023/11/01 03:59:48;;;;;;;;;7.00;7.00;;;;;9.62;100.00;99240.63;6283185;20;2741948;-45
2023/11/01 04:02:16;;;;;;;;;6.50;6.50;;;;;9.45;100.00;99245.25;6280591;20;2738930;-45
2023/11/01 04:04:44;;;;;;;;;8.00;8.00;;;;;9.40;100.00;99252.72;6283538;20;2732586;-46
2023/11/01 04:07:12;;;;;;;;;7.00;5.00;;;;;9.51;100.00;99260.09;6284876;20;2738885;-45
2023/11/01 04:09:39;;;;;;;;;7.00;7.00;;;;;9.42;100.00;99260.66;6282740;20;2739944;-46
2023/11/01 04:12:07;;;;;;;;;6.00;6.00;;;;;9.47;100.00;99263.06;6282345;20;2746115;-45
2023/11/01 04:14:35;;;;;;;;;11.00;8.50;;;;;9.24;100.00;99265.34;6283035;20;2754508;-45
2023/11/01 04:17:04;;;;;;;;;11.00;7.00;;;;;9.47;100.00;99266.59;6281006;20;2761841;-45
2023/11/01 04:19:35;;;;;;;;;8.33;7.33;;;;;9.35;100.00;99254.84;6323947;20;1808758;-47
2023/11/01 04:22:02;;;;;;;;;8.00;8.00;;;;;9.47;100.00;99263.06;6282365;20;2743985;-45
2023/11/01 04:24:31;;;;;;;;;10.50;7.00;;;;;9.45;100.00;99268.50;6283202;20;2753420;-45
2023/11/01 04:26:59;;;;;;;;;10.00;8.00;;;;;9.35;100.00;99262.88;6282140;20;2747166;-49
2023/11/01 04:29:29;;;;;;;;;6.80;6.40;;;;;9.39;100.00;99266.22;6304046;20;2742098;-45
2023/11/01 04:31:59;;;;;;;;;8.00;7.80;;;;;9.35;100.00;99268.25;6339456;20;2742374;-45
2023/11/01 04:34:27;;;;;;;;;5.00;5.00;;;;;9.28;100.00;99274.94;6320100;20;2729505;-45
2023/11/01 04:36:56;;;;;;;;;9.50;7.50;;;;;9.12;100.00;99271.50;6336170;20;1805669;-46
2023/11/01 04:39:24;;;;;;;;;10.50;6.50;;;;;9.08;100.00;99276.16;6318134;20;2752439;-45
2023/11/01 04:41:52;;;;;;;;;10.00;8.00;;;;;9.17;100.00;99274.75;6285636;20;2743048;-45
2023/11/01 04:44:22;;;;;;;;;12.80;10.20;;;;;9.08;100.00;99273.50;6309520;20;2781543;-45
2023/11/01 04:46:50;;;;;;;;;14.00;10.00;;;;;9.13;100.00;99276.75;6286219;20;2786761;-45
2023/11/01 04:49:18;;;;;;;;;12.00;11.00;;;;;8.97;100.00;99282.19;6286277;20;2786767;-46
2023/11/01 04:51:46;;;;;;;;;12.00;11.00;;;;;9.07;100.00;99276.28;6284905;20;2788879;-45
2023/11/01 04:54:15;;;;;;;;;6.25;6.00;;;;;8.94;100.00;99282.38;6305136;20;1816007;-45
2023/11/01 04:56:42;;;;;;;;;7.00;7.00;;;;;9.01;100.00;99289.09;6319461;20;2740985;-46
2023/11/01 04:59:10;;;;;;;;;10.00;7.50;;;;;9.01;100.00;99273.03;6284888;20;2758671;-47
2023/11/01 05:01:38;;;;;;;;;7.00;7.00;;;;;9.07;100.00;99276.28;6285397;20;2743053;-45
2023/11/01 05:04:06;;;;;;;;;11.00;7.00;;;;;9.06;100.00;99279.91;6283616;20;2754583;-45
2023/11/01 05:06:34;;;;;;;;;11.00;10.00;;;;;9.02;100.00;99284.59;6284336;20;2785714;-44
2023/11/01 05:09:04;;;;;;;;;8.00;8.00;;;;;9.02;100.00;99279.22;6287037;20;2750318;-44
2023/11/01 05:11:33;;;;;;;;;11.00;9.60;;;;;9.12;100.00;99285.75;6309147;20;2772166;-45
2023/11/01 05:14:01;;;;;;;;;8.00;7.00;;;;;9.10;100.00;99292.16;6286257;20;2744032;-44
2023/11/01 05:16:29;;;;;;;;;12.00;10.50;;;;;9.01;100.00;99291.75;6285663;20;2785059;-44
2023/11/01 05:18:57;;;;;;;;;10.50;10.50;;;;;9.06;100.00;99295.97;6284734;20;2783068;-44
2023/11/01 05:21:25;;;;;;;;;10.50;8.00;;;;;9.19;100.00;99291.59;6287785;20;2747182;-44
2023/11/01 05:23:53;;;;;;;;;10.50;6.50;;;;;8.91;100.00;99293.28;6283353;20;2759610;-45
2023/11/01 05:26:21;;;;;;;;;6.50;6.50;;;;;9.16;100.00;99281.94;6290886;20;2740905;-44
2023/11/01 05:28:48;;;;;;;;;11.00;8.00;;;;;9.36;100.00;99285.16;6282649;20;2762798;-44
2023/11/01 05:31:16;;;;;;;;;10.00;10.00;;;;;8.94;100.00;99290.41;6284451;20;2771127;-45
2023/11/01 05:33:44;;;;;;;;;10.00;8.50;;;;;9.12;100.00;99284.88;6282868;20;2774224;-44
2023/11/01 05:36:14;;;;;;;;;11.00;10.50;;;;;9.16;100.00;99299.78;6285898;20;2783662;-45
2023/11/01 05:38:43;;;;;;;;;11.50;10.50;;;;;9.00;100.00;99297.19;6285358;20;2788807;-47
2023/11/01 05:41:13;;;;;;;;;12.00;10.00;;;;;8.95;100.00;99300.19;6305979;20;2776306;-46
2023/11/01 05:43:41;;;;;;;;;10.50;8.25;;;;;9.00;100.00;99308.81;6303154;20;1815461;-45
2023/11/01 05:46:11;;;;;;;;;7.20;7.20;;;;;8.86;100.00;99311.44;6339736;20;2737774;-45
2023/11/01 05:48:39;;;;;;;;;7.50;7.50;;;;;8.99;100.00;99316.91;6315503;20;2737887;-45
2023/11/01 05:51:09;;;;;;;;;10.20;7.80;;;;;9.04;100.00;99320.16;6308419;20;2758607;-45
2023/11/01 05:53:37;;;;;;;;;11.50;8.00;;;;;9.10;100.00;99325.16;6315801;20;2764918;-44
2023/11/01 05:56:05;;;;;;;;;8.50;7.00;;;;;9.10;100.00;99332.31;6283578;20;2746131;-44
2023/11/01 05:58:38;;;;;;;;;5.75;5.75;;;;;9.29;100.00;99334.72;6302181;20;1805017;-45
2023/11/01 06:01:06;;;;;;;;;7.00;7.00;;;;;9.62;100.00;99339.81;6313874;20;2737811;-48
2023/11/01 06:03:34;;;;;;;;;9.00;9.00;;;;;10.64;100.00;99353.75;6284922;20;2733637;-45
2023/11/01 06:06:02;;;;;;;;;6.00;6.00;;;;;11.39;100.00;99347.69;6317562;20;2732561;-44
2023/11/01 06:08:30;;;;;;;;;7.50;6.00;;;;;10.98;100.00;99351.44;6285361;20;2743003;-47
2023/11/01 06:11:00;;;;;;;;;11.20;8.60;;;;;10.72;100.00;99340.66;6307488;20;2775426;-45
2023/11/01 06:13:30;;;;;;;;;10.00;6.80;;;;;11.25;100.00;99337.06;6309116;20;2731536;-45
2023/11/01 06:16:04;;;;;;;;;6.86;5.14;;;;;10.88;100.00;99351.22;6353824;20;1797263;-48
2023/11/01 06:18:32;;;;;;;;;6.00;6.00;;;;;10.98;100.00;99351.44;6318362;20;2741911;-47
2023/11/01 06:21:00;;;;;;;;;8.00;7.00;;;;;11.99;98.97;99354.22;6285335;20;2730605;-44
2023/11/01 06:23:28;;;;;;;;;9.00;5.00;;;;;12.86;93.26;99355.78;6285340;20;2748425;-45
2023/11/01 06:25:58;;;;;;;;;8.00;7.50;;;;;12.99;91.28;99362.91;6287841;20;2737800;-46
2023/11/01 06:28:28;;;;;;;;;7.00;7.00;;;;;13.52;86.99;99368.69;6313111;20;2750287;-47
2023/11/01 06:30:56;;;;;;;;;6.50;6.50;;;;;14.94;82.98;99364.28;6316731;20;2741043;-45
2023/11/01 06:33:27;;;;;;;;;7.00;7.00;;;;;14.50;80.05;99371.53;6329205;20;3461724;-47
2023/11/01 06:35:55;;;;;;;;;9.00;7.00;;;;;14.91;79.05;99376.22;6313761;20;2745182;-45
2023/11/01 06:38:23;;;;;;;;;8.50;7.00;;;;;16.29;69.29;99384.97;6295140;20;2737897;-44
2023/11/01 06:40:51;;;;;;;;;7.50;7.50;;;;;17.87;61.09;99383.81;6287776;20;2739851;-45
2023/11/01 06:43:21;;;;;;;;;6.20;6.20;;;;;19.15;53.67;99377.47;6307603;20;2738844;-46
2023/11/01 06:45:50;;;;;;;;;6.80;6.20;;;;;18.59;55.15;99384.91;6339467;20;2745076;-46
2023/11/01 06:48:20;;;;;;;;;8.00;6.40;;;;;21.45;48.81;99399.28;6342066;20;2748230;-47
2023/11/01 06:50:49;;;;;;;;;7.20;7.20;;;;;20.82;48.85;99408.91;6341094;20;2742107;-45
2023/11/01 06:53:21;;;;;;;;;6.29;6.00;;;;;21.40;47.48;99406.28;6357237;20;3451309;-45
2023/11/01 06:55:49;;;;;;;;;9.00;8.00;;;;;19.64;50.57;99404.22;6323760;20;2736861;-45
2023/11/01 06:58:16;;;;;;;;;6.00;6.00;;;;;21.60;49.46;99413.13;6288461;20;2737755;-46
2023/11/01 07:00:45;;;;;;;;;5.33;5.33;;;;;21.51;47.67;99410.56;6287307;20;2752368;-46
2023/11/01 07:03:15;;;;;;;;;6.00;5.00;;;;;21.95;46.58;99405.53;6339946;20;2747205;-46
2023/11/01 07:05:44;;;;;;;;;5.67;5.67;;;;;21.60;47.42;99407.66;6285136;20;2739860;-46
2023/11/01 07:08:13;;;;;;;;;7.20;6.80;;;;;22.11;44.95;99408.22;6339546;20;2748208;-45
2023/11/01 07:10:43;;;;;;;;;7.00;6.00;;;;;22.02;45.25;99414.75;6339769;20;2737855;-45
2023/11/01 07:13:12;;;;;;;;;4.80;4.80;;;;;21.98;46.17;99409.81;6338662;20;2748326;-45
2023/11/01 07:15:42;;;;;;;;;5.00;5.00;;;;;20.67;47.13;99404.28;6339623;20;2748281;-46
2023/11/01 07:18:12;;;;;;;;;6.60;5.40;;;;;15.20;67.43;99391.81;6339783;20;2741963;-46
2023/11/01 07:20:41;;;;;;;;;10.33;9.00;;;;;13.95;77.27;99381.44;6314475;20;2775340;-47
2023/11/01 07:23:09;;;;;;;;;7.50;6.00;;;;;13.99;79.38;99378.41;6312218;20;2736785;-46
2023/11/01 07:25:38;;;;;;;;;5.60;5.20;;;;;13.56;82.44;99373.75;6307656;20;2745093;-46
2023/11/01 07:28:06;;;;;;;;;8.00;6.00;;;;;13.56;84.40;99387.22;6315096;20;2745080;-45
2023/11/01 07:30:35;;;;;;;;;9.00;8.00;;;;;13.51;84.61;99384.03;6289083;20;2754437;-45
2023/11/01 07:33:03;;;;;;;;;3.00;3.00;;;;;13.27;87.74;99375.13;6283959;20;2747167;-46
2023/11/01 07:35:34;;;;;;;;;9.43;8.00;;;;;13.23;88.85;99373.66;6322882;20;3479515;-45
2023/11/01 07:38:04;;;;;;;;;8.20;8.20;;;;;13.47;86.95;99381.69;6340687;20;2737782;-46
2023/11/01 07:40:35;;;;;;;;;9.00;7.00;;;;;13.70;84.63;99391.53;6355448;20;3458675;-45
2023/11/01 07:43:03;;;;;;;;;9.00;9.00;;;;;13.19;88.44;99383.78;6312790;20;2744004;-45
2023/11/01 07:45:32;;;;;;;;;9.00;9.00;;;;;13.58;89.74;99387.94;6284433;20;2754490;-45
2023/11/01 07:47:59;;;;;;;;;4.00;4.00;;;;;14.04;83.28;99386.97;6292577;20;2635845;-45
2023/11/01 07:50:27;;;;;;;;;7.00;7.00;;;;;13.74;83.63;99397.53;6282289;20;2748433;-47
2023/11/01 07:52:55;;;;;;;;;7.00;6.00;;;;;13.60;87.65;99399.47;6283899;20;2738917;-45
2023/11/01 07:55:25;;;;;;;;;7.00;7.00;;;;;13.98;86.40;99397.41;6309542;20;2736846;-45
2023/11/01 07:57:52;;;;;;;;;9.00;7.00;;;;;13.96;87.62;99396.69;6318897;20;2736797;-45
2023/11/01 08:00:22;;;;;;;;;7.20;5.60;;;;;14.40;82.95;99395.78;6309789;20;2741018;-46
2023/11/01 08:02:50;;;;;;;;;9.00;7.00;;;;;14.60;79.64;99388.75;6315702;20;2748237;-50
2023/11/01 08:05:21;;;;;;;;;6.00;6.00;;;;;14.06;83.55;99389.56;6309710;20;2738891;-45
2023/11/01 08:07:50;;;;;;;;;8.50;7.00;;;;;14.48;83.68;99385.19;6315803;20;2744206;-45
2023/11/01 08:10:18;;;;;;;;;8.00;6.00;;;;;14.43;85.13;99398.22;6285372;20;2746234;-45
2023/11/01 08:12:47;;;;;;;;;7.50;7.50;;;;;14.93;80.87;99403.16;6289175;20;2731558;-45
2023/11/01 08:15:17;;;;;;;;;9.00;6.40;;;;;14.12;84.65;99407.97;6307599;20;2748234;-46
2023/11/01 08:17:44;;;;;;;;;7.00;6.00;;;;;14.20;83.20;99408.19;6285483;20;2739877;-46
2023/11/01 08:20:13;;;;;;;;;7.00;7.00;;;;;14.93;81.94;99416.66;6284386;20;2746127;-47
2023/11/01 08:22:40;;;;;;;;;6.00;6.00;;;;;15.11;79.13;99408.81;6274445;20;2747264;-52
2023/11/01 08:25:09;;;;;;;;;4.00;4.00;;;;;15.37;76.82;99402.03;6276323;20;2742020;-47
2023/11/01 08:27:36;;;;;;;;;5.00;5.00;;;;;15.08;78.77;99403.66;6276006;20;2743029;-46
2023/11/01 08:30:06;;;;;;;;;4.00;4.00;;;;;15.18;79.01;99401.91;6277557;20;2753531;-48
2023/11/01 08:32:34;;;;;;;;;2.00;2.00;;;;;15.54;74.37;99414.13;6273978;20;2751325;-46
2023/11/01 08:35:03;;;;;;;;;2.00;2.00;;;;;15.79;72.53;99420.13;6276925;20;2756537;-49
2023/11/01 08:37:30;;;;;;;;;3.00;3.00;;;;;15.22;73.79;99413.31;6279285;20;2739910;-46
2023/11/01 08:39:58;;;;;;;;;2.50;2.50;;;;;15.48;72.85;99411.97;6276013;20;2749367;-46
2023/11/01 08:42:26;;;;;;;;;2.00;2.00;;;;;15.58;72.35;99412.84;6275487;20;2746237;-48
2023/11/01 08:44:54;;;;;;;;;1.00;1.00;;;;;15.70;71.44;99418.25;6280486;20;2726341;-45
2023/11/01 08:47:44;;;;;;;;;2.00;2.00;;;;;15.56;72.59;99422.97;6275839;20;2748313;-45
2023/11/01 08:50:13;;;;;;;;;4.00;2.00;;;;;15.58;73.93;99418.25;6280449;20;2750416;-46
2023/11/01 08:52:44;;;;;;;;;5.50;3.00;;;;;15.83;72.94;99416.16;6275957;20;2741025;-45
2023/11/01 08:55:16;;;;;;;;;2.40;2.40;;;;;16.12;70.89;99419.00;6316302;20;2484842;-46
2023/11/01 08:57:44;;;;;;;;;3.00;1.00;;;;;16.34;68.85;99420.66;6308886;20;2727394;-54
2023/11/01 09:00:13;;;;;;;;;3.50;2.00;;;;;15.51;69.70;99427.06;6276172;20;2746245;-46
2023/11/01 09:02:41;;;;;;;;;3.00;3.00;;;;;15.82;70.50;99419.00;6279391;20;2740899;-47
2023/11/01 09:05:10;;;;;;;;;4.00;4.00;;;;;15.51;71.28;99418.94;6276181;20;2746146;-47
2023/11/01 09:07:38;;;;;;;;;3.00;3.00;;;;;15.89;71.08;99418.31;6277159;20;2753425;-48
2023/11/01 09:10:08;;;;;;;;;2.00;2.00;;;;;16.42;71.44;99428.09;6276363;20;2755526;-46
2023/11/01 09:12:37;;;;;;;;;3.50;2.00;;;;;16.12;70.01;99426.28;6276719;20;2744069;-46
2023/11/01 09:15:06;;;;;;;;;4.00;2.50;;;;;16.38;70.43;99432.09;6278790;20;2748202;-46
2023/11/01 09:17:35;;;;;;;;;1.00;1.00;;;;;15.83;67.78;99424.28;6297872;20;1795247;-46
2023/11/01 09:20:03;;;;;;;;;5.00;3.00;;;;;15.93;69.66;99427.03;6314783;20;2732586;-47
2023/11/01 09:22:32;;;;;;;;;3.00;3.00;;;;;16.60;70.17;99433.69;6279785;20;2753481;-51
2023/11/01 09:25:00;;;;;;;;;5.00;3.00;;;;;15.91;71.53;99431.75;6277627;20;2742106;-47
2023/11/01 09:27:28;;;;;;;;;3.00;3.00;;;;;16.43;70.83;99435.25;6284612;20;2732573;-47
2023/11/01 09:29:55;;;;;;;;;2.00;2.00;;;;;16.38;67.61;99427.53;6281148;20;2744085;-45
2023/11/01 09:32:23;;;;;;;;;2.00;2.00;;;;;16.09;67.94;99429.25;6279597;20;2744104;-46
2023/11/01 09:34:51;;;;;;;;;2.00;2.00;;;;;15.50;70.09;99425.34;6281504;20;2748402;-46
2023/11/01 09:37:20;;;;;;;;;2.00;2.00;;;;;15.87;69.62;99430.28;6283766;20;2744103;-46
2023/11/01 09:39:48;;;;;;;;;2.00;2.00;;;;;16.24;68.90;99441.41;6280175;20;2748705;-49
2023/11/01 09:42:20;;;;;;;;;3.00;1.50;;;;;16.45;67.92;99438.66;6278675;20;2739960;-48
2023/11/01 09:44:49;;;;;;;;;2.50;2.00;;;;;16.36;68.75;99442.19;6281114;20;2741945;-47
2023/11/01 09:47:18;;;;;;;;;3.00;3.00;;;;;16.37;68.33;99443.91;6280003;20;2752409;-46
2023/11/01 09:49:47;;;;;;;;;2.00;2.00;;;;;16.40;68.83;99447.22;6294779;20;1813204;-45
2023/11/01 09:52:16;;;;;;;;;4.50;3.00;;;;;16.51;71.92;99454.38;6307193;20;2742091;-45
2023/11/01 09:54:44;;;;;;;;;4.00;4.00;;;;;16.53;69.88;99459.63;6281628;20;2756595;-46
2023/11/01 09:57:13;;;;;;;;;2.50;2.00;;;;;16.23;70.59;99453.25;6280790;20;2748337;-47
2023/11/01 09:59:41;;;;;;;;;2.00;2.00;;;;;16.52;68.97;99460.66;6283079;20;2739906;-46
2023/11/01 10:02:10;;;;;;;;;5.00;4.00;;;;;16.11;69.92;99455.19;6277618;20;2754458;-48
2023/11/01 10:04:39;;;;;;;;;3.00;3.00;;;;;16.68;68.57;99460.97;6283611;20;2730507;-46
2023/11/01 10:07:09;;;;;;;;;3.00;1.00;;;;;16.09;70.17;99461.75;6283526;20;2736821;-45
2023/11/01 10:09:39;;;;;;;;;3.00;3.00;;;;;16.21;69.74;99457.97;6281716;20;2750274;-47
2023/11/01 10:12:08;;;;;;;;;3.00;3.00;;;;;15.55;71.70;99458.28;6279029;20;2747226;-47
2023/11/01 10:14:37;;;;;;;;;3.00;3.00;;;;;16.04;71.96;99466.72;6283988;20;2740928;-47
2023/11/01 10:17:05;;;;;;;;;3.50;3.50;;;;;16.45;71.80;99466.59;6280657;20;2750393;-46
2023/11/01 10:19:33;;;;;;;;;3.00;3.00;;;;;16.61;70.33;99470.66;6282920;20;2746157;-47
2023/11/01 10:22:01;;;;;;;;;3.00;3.00;;;;;16.84;69.43;99472.16;6280110;20;2738883;-46
2023/11/01 10:24:29;;;;;;;;;2.00;2.00;;;;;16.59;70.09;99472.66;6280116;20;2756534;-47
2023/11/01 10:26:58;;;;;;;;;2.00;2.00;;;;;16.73;69.64;99468.69;6279850;20;2736744;-46
2023/11/01 10:29:28;;;;;;;;;2.00;2.00;;;;;16.70;70.11;99472.53;6282851;20;2735718;-45
2023/11/01 10:31:59;;;;;;;;;3.00;1.00;;;;;16.59;69.46;99467.25;6281755;20;2738860;-45
2023/11/01 10:34:29;;;;;;;;;2.00;2.00;;;;;16.93;68.64;99472.31;6282661;20;2744070;-51
2023/11/01 10:36:59;;;;;;;;;2.50;1.00;;;;;16.76;67.09;99463.84;6280896;20;2731524;-49
2023/11/01 10:39:27;;;;;;;;;2.00;2.00;;;;;17.12;67.71;99453.38;6280257;20;2735260;-51
2023/11/01 10:41:56;;;;;;;;;2.00;2.00;;;;;17.09;68.31;99450.94;6281120;20;2737780;-48
2023/11/01 10:44:25;;;;;;;;;2.50;2.50;;;;;17.42;66.16;99443.34;6280352;20;2731599;-47
2023/11/01 10:46:54;;;;;;;;;2.50;2.50;;;;;17.15;65.36;99441.38;6278264;20;2752397;-49
2023/11/01 10:49:22;;;;;;;;;1.00;1.00;;;;;16.76;66.01;99435.88;6281065;20;2732637;-49
2023/11/01 10:51:52;;;;;;;;;2.00;2.00;;;;;16.62;66.25;99431.72;6277690;20;2742320;-47
2023/11/01 10:54:21;;;;;;;;;4.00;2.00;;;;;16.86;65.38;99436.78;6279974;20;2753528;-48
2023/11/01 10:56:49;;;;;;;;;1.00;1.00;;;;;16.72;66.21;99432.59;6285638;20;2598222;-49
2023/11/01 10:59:34;;;;;;;;;2.00;2.00;;;;;16.87;67.72;99417.63;6279249;20;2737798;-49
2023/11/01 11:02:18;;;;;;;;;6.50;6.50;;;;;17.07;66.36;99421.22;6279704;20;2745055;-47
2023/11/01 11:05:01;;;;;;;;;2.00;2.00;;;;;16.81;65.26;99426.34;6281111;20;2733669;-53
2023/11/01 11:07:56;;;;;;;;;1.50;1.50;;;;;16.73;67.29;99426.16;6280222;20;2728465;-52
2023/11/01 11:10:37;;;;;;;;;2.00;2.00;;;;;16.72;66.59;99427.19;6280681;20;2744075;-52
2023/11/01 11:13:12;;;;;;;;;4.00;4.00;;;;;16.60;65.85;99420.16;6281197;20;2749258;-50
2023/11/01 11:15:56;;;;;;;;;2.00;2.00;;;;;17.11;65.17;99413.66;6278790;20;2742996;-50
2023/11/01 11:18:28;;;;;;;;;1.50;1.50;;;;;17.15;65.64;99408.81;6281257;20;2737830;-49
2023/11/01 11:20:58;;;;;;;;;2.00;2.00;;;;;17.30;65.98;99410.94;6281201;20;2745094;-49
2023/11/01 11:23:35;;;;;;;;;2.00;2.00;;;;;16.73;67.98;99400.91;6277873;20;2748224;-46